Time;durP1;ratioP1;P1;durP2;ratioP2;P2;SDS_P1;SDS_P2;PMS_P1;PMS_P2;Temp;Humidity;BMP_temperature;BMP_pressure;BME280_temperature;BME280_humidity;BME280_pressure;Samples;Min_cycle;Max_cycle;Signal;HPM_P1;HPM_P2
2023/05/20 00:00:36;;;;;;;0.55;0.55;;;13.20;99.90;;;;;;4397064;32;20430;-65
2023/05/20 00:03:01;;;;;;;2.42;0.68;;;13.10;99.90;;;;;;4397780;32;20082;-65
2023/05/20 00:05:27;;;;;;;0.30;0.30;;;13.10;99.90;;;;;;4399221;32;20101;-67
2023/05/20 00:07:52;;;;;;;1.35;0.65;;;13.10;99.90;;;;;;4398175;32;20112;-67
2023/05/20 00:10:18;;;;;;;0.80;0.62;;;13.10;99.90;;;;;;4395284;32;20077;-66
2023/05/20 00:12:43;;;;;;;0.30;0.30;;;13.10;99.90;;;;;;4398057;32;20061;-66
2023/05/20 00:15:10;;;;;;;0.50;0.50;;;13.10;99.90;;;;;;4398931;32;20054;-68
2023/05/20 00:17:36;;;;;;;0.28;0.28;;;13.10;99.90;;;;;;4384676;32;20102;-67
2023/05/20 00:20:04;;;;;;;0.50;0.50;;;13.00;99.90;;;;;;4398680;32;20534;-66
2023/05/20 00:22:30;;;;;;;4.28;0.47;;;12.90;99.90;;;;;;4398568;32;20443;-67
2023/05/20 00:24:55;;;;;;;0.50;0.50;;;12.90;99.90;;;;;;4398955;32;20144;-66
2023/05/20 00:27:20;;;;;;;0.75;0.50;;;12.90;99.90;;;;;;4397689;32;20090;-67
2023/05/20 00:29:46;;;;;;;0.95;0.93;;;12.90;99.90;;;;;;4399299;32;20081;-67
2023/05/20 00:32:11;;;;;;;0.30;0.30;;;12.90;99.90;;;;;;4398585;32;20081;-66
2023/05/20 00:34:37;;;;;;;0.30;0.30;;;12.90;99.90;;;;;;4398950;32;20093;-68
2023/05/20 00:37:02;;;;;;;0.45;0.45;;;12.90;99.90;;;;;;4397225;32;20090;-66
2023/05/20 00:39:29;;;;;;;0.62;0.50;;;12.90;99.90;;;;;;4399811;32;20509;-67
2023/05/20 00:41:55;;;;;;;0.30;0.30;;;12.80;99.90;;;;;;4397082;32;20074;-67
2023/05/20 00:44:23;;;;;;;0.30;0.30;;;12.90;99.90;;;;;;4398384;32;20074;-67
2023/05/20 00:46:49;;;;;;;0.43;0.43;;;12.90;99.90;;;;;;4396929;32;20074;-67
2023/05/20 00:49:14;;;;;;;0.50;0.50;;;12.80;99.90;;;;;;4397151;32;20062;-67
2023/05/20 00:51:40;;;;;;;0.57;0.57;;;12.80;99.90;;;;;;4395791;32;20624;-67
2023/05/20 00:54:05;;;;;;;0.30;0.30;;;12.80;99.90;;;;;;4395658;32;20074;-67
2023/05/20 00:56:31;;;;;;;10.13;2.75;;;12.80;99.90;;;;;;4397949;32;20095;-66
2023/05/20 00:58:57;;;;;;;1.00;0.80;;;12.80;99.90;;;;;;4397488;32;20113;-67
2023/05/20 01:01:22;;;;;;;0.30;0.30;;;12.80;99.90;;;;;;4395675;32;20097;-67
2023/05/20 01:03:48;;;;;;;1.50;0.68;;;12.80;99.90;;;;;;4399821;32;20336;-67
2023/05/20 01:06:13;;;;;;;0.60;0.60;;;12.80;99.90;;;;;;4399981;32;20086;-67
2023/05/20 01:08:39;;;;;;;2.92;1.37;;;12.70;99.90;;;;;;4396665;32;20062;-66
2023/05/20 01:11:08;;;;;;;0.35;0.35;;;12.70;99.90;;;;;;4396797;32;20517;-66
2023/05/20 01:13:41;;;;;;;0.30;0.30;;;12.70;99.90;;;;;;4382777;32;20079;-67
2023/05/20 01:16:09;;;;;;;1.75;0.93;;;12.60;99.90;;;;;;4398408;32;20089;-65
2023/05/20 01:18:36;;;;;;;0.55;0.55;;;12.50;99.90;;;;;;4383973;32;20085;-65
2023/05/20 01:21:02;;;;;;;0.40;0.40;;;12.50;99.90;;;;;;4396875;32;20434;-67
2023/05/20 01:23:43;;;;;;;0.68;0.68;;;12.60;99.90;;;;;;4397652;32;20526;-67
2023/05/20 01:26:12;;;;;;;0.52;0.52;;;12.60;99.90;;;;;;4397022;32;20683;-67
2023/05/20 01:28:38;;;;;;;0.65;0.43;;;12.50;99.90;;;;;;4395927;32;20122;-66
2023/05/20 01:31:10;;;;;;;0.30;0.30;;;12.50;99.90;;;;;;4383190;32;20089;-67
2023/05/20 01:33:37;;;;;;;0.30;0.30;;;12.50;99.90;;;;;;4375799;32;20070;-66
2023/05/20 01:36:05;;;;;;;0.50;0.50;;;12.60;99.90;;;;;;4396494;32;20121;-67
2023/05/20 01:38:30;;;;;;;1.20;0.60;;;12.50;99.90;;;;;;4382027;32;20117;-67
2023/05/20 01:40:58;;;;;;;0.50;0.50;;;12.50;99.90;;;;;;4396418;32;20572;-65
2023/05/20 01:43:25;;;;;;;1.45;0.73;;;12.40;99.90;;;;;;4394168;32;20097;-66
2023/05/20 01:45:51;;;;;;;0.47;0.47;;;12.40;99.90;;;;;;4396425;32;20066;-67
2023/05/20 01:48:16;;;;;;;0.50;0.50;;;12.40;99.90;;;;;;4396987;32;20502;-65
2023/05/20 01:50:42;;;;;;;1.52;1.00;;;12.40;99.90;;;;;;4383283;32;20065;-67
2023/05/20 01:53:08;;;;;;;0.47;0.47;;;12.30;99.90;;;;;;4394020;32;20074;-67
2023/05/20 01:55:34;;;;;;;4.68;1.67;;;12.30;99.90;;;;;;4398383;32;20600;-66
2023/05/20 01:58:00;;;;;;;0.40;0.40;;;12.30;99.90;;;;;;4395697;32;20509;-67
2023/05/20 02:00:26;;;;;;;1.15;0.77;;;12.30;99.90;;;;;;4397432;32;20085;-65
2023/05/20 02:02:51;;;;;;;0.50;0.50;;;12.30;99.90;;;;;;4398216;32;20464;-66
2023/05/20 02:05:17;;;;;;;0.50;0.50;;;12.30;99.90;;;;;;4398051;32;20077;-68
2023/05/20 02:07:42;;;;;;;0.50;0.50;;;12.20;99.90;;;;;;4398695;32;20185;-67
2023/05/20 02:10:08;;;;;;;0.80;0.80;;;12.20;99.90;;;;;;4398420;32;20081;-67
2023/05/20 02:12:34;;;;;;;0.60;0.60;;;12.20;99.90;;;;;;4382678;32;20101;-68
2023/05/20 02:14:59;;;;;;;0.52;0.52;;;12.20;99.90;;;;;;4398794;32;20054;-67
2023/05/20 02:17:25;;;;;;;0.43;0.43;;;12.20;99.90;;;;;;4397436;32;20404;-67
2023/05/20 02:19:51;;;;;;;0.43;0.43;;;12.20;99.90;;;;;;4398562;32;20563;-68
2023/05/20 02:22:17;;;;;;;0.70;0.65;;;12.20;99.90;;;;;;4397509;32;20074;-68
2023/05/20 02:24:42;;;;;;;1.55;0.70;;;12.20;99.90;;;;;;4397347;32;20108;-67
2023/05/20 02:27:08;;;;;;;3.53;1.37;;;12.10;99.90;;;;;;4397953;32;20094;-66
2023/05/20 02:29:33;;;;;;;0.47;0.47;;;12.10;99.90;;;;;;4396618;32;20058;-66
2023/05/20 02:31:59;;;;;;;0.50;0.50;;;12.00;99.90;;;;;;4403978;32;20085;-67
2023/05/20 02:34:25;;;;;;;0.85;0.62;;;12.10;99.90;;;;;;4387558;32;20074;-68
2023/05/20 02:36:51;;;;;;;0.40;0.40;;;12.10;99.90;;;;;;4401438;32;20105;-68
2023/05/20 02:39:16;;;;;;;0.30;0.30;;;12.10;99.90;;;;;;4399770;32;20446;-67
2023/05/20 02:41:42;;;;;;;0.30;0.30;;;12.20;99.90;;;;;;4400931;32;20243;-67
2023/05/20 02:44:07;;;;;;;0.40;0.40;;;12.20;99.90;;;;;;4399243;32;20444;-67
2023/05/20 02:46:33;;;;;;;0.40;0.40;;;12.20;99.90;;;;;;4398722;32;20062;-67
2023/05/20 02:48:58;;;;;;;1.58;0.62;;;12.20;99.90;;;;;;4399562;32;20090;-67
2023/05/20 02:51:24;;;;;;;0.60;0.60;;;12.30;99.90;;;;;;4400534;32;20062;-66
2023/05/20 02:53:50;;;;;;;2.35;0.93;;;12.30;99.90;;;;;;4399551;32;20095;-67
2023/05/20 02:56:20;;;;;;;1.20;1.10;;;12.30;99.90;;;;;;4399731;32;20102;-66
2023/05/20 02:58:45;;;;;;;0.50;0.50;;;12.30;99.90;;;;;;4399959;32;20109;-67
2023/05/20 03:01:11;;;;;;;0.60;0.60;;;12.30;99.90;;;;;;4397712;32;20213;-66
2023/05/20 03:03:36;;;;;;;0.50;0.50;;;12.40;99.90;;;;;;4399966;32;20062;-67
2023/05/20 03:06:02;;;;;;;0.40;0.40;;;12.40;99.90;;;;;;4398653;32;20053;-67
2023/05/20 03:08:28;;;;;;;1.37;1.12;;;12.40;99.90;;;;;;4399175;32;20503;-66
2023/05/20 03:10:54;;;;;;;0.50;0.50;;;12.50;99.90;;;;;;4398496;32;20069;-67
2023/05/20 03:13:19;;;;;;;0.60;0.60;;;12.40;99.90;;;;;;4400504;32;20073;-67
2023/05/20 03:15:45;;;;;;;1.10;0.60;;;12.30;99.90;;;;;;4400391;32;20159;-67
2023/05/20 03:18:14;;;;;;;0.50;0.50;;;12.30;99.90;;;;;;4402043;32;20061;-67
2023/05/20 03:20:40;;;;;;;0.82;0.57;;;12.30;99.90;;;;;;4399514;32;20062;-67
2023/05/20 03:23:06;;;;;;;0.40;0.40;;;12.30;99.90;;;;;;4399477;32;20470;-66
2023/05/20 03:25:31;;;;;;;0.62;0.62;;;12.30;99.90;;;;;;4398441;32;20137;-67
2023/05/20 03:27:58;;;;;;;0.50;0.50;;;12.30;99.90;;;;;;4400154;32;20534;-67
2023/05/20 03:30:24;;;;;;;0.50;0.50;;;12.30;99.90;;;;;;4398216;32;20658;-67
2023/05/20 03:32:50;;;;;;;0.82;0.82;;;12.30;99.90;;;;;;4386815;32;20486;-67
2023/05/20 03:35:15;;;;;;;0.50;0.50;;;12.30;99.90;;;;;;4398061;32;20062;-66
2023/05/20 03:37:41;;;;;;;0.50;0.50;;;12.30;99.90;;;;;;4384701;32;20383;-66
2023/05/20 03:40:09;;;;;;;1.90;1.02;;;12.30;99.90;;;;;;4399426;32;20160;-67
2023/05/20 03:42:35;;;;;;;2.85;1.10;;;12.20;99.90;;;;;;4399909;32;20148;-67
2023/05/20 03:45:01;;;;;;;0.68;0.68;;;12.30;99.90;;;;;;4399409;32;20420;-67
2023/05/20 03:47:27;;;;;;;0.77;0.73;;;12.30;99.90;;;;;;4385440;32;20086;-67
2023/05/20 03:49:53;;;;;;;3.75;1.77;;;12.20;99.90;;;;;;4397331;32;20062;-67
2023/05/20 03:52:18;;;;;;;0.50;0.50;;;12.20;99.90;;;;;;4398111;32;20068;-67
2023/05/20 03:54:44;;;;;;;1.95;0.70;;;12.30;99.90;;;;;;4398380;32;20103;-67
2023/05/20 03:57:09;;;;;;;0.65;0.65;;;12.30;99.90;;;;;;4399433;32;20070;-67
2023/05/20 03:59:36;;;;;;;3.08;0.93;;;12.30;99.90;;;;;;4398866;32;20098;-67
2023/05/20 04:02:02;;;;;;;0.93;0.88;;;12.40;99.90;;;;;;4385860;32;20069;-67
2023/05/20 04:04:29;;;;;;;0.85;0.55;;;12.40;99.90;;;;;;4386353;32;20471;-66
2023/05/20 04:06:55;;;;;;;0.62;0.60;;;12.50;99.90;;;;;;4398253;32;20094;-67
2023/05/20 04:09:21;;;;;;;0.47;0.47;;;12.50;99.90;;;;;;4397640;32;20099;-67
2023/05/20 04:11:47;;;;;;;0.47;0.47;;;12.40;99.90;;;;;;4401068;32;20077;-68
2023/05/20 04:14:12;;;;;;;1.15;0.62;;;12.40;99.90;;;;;;4398913;32;20086;-67
2023/05/20 04:16:38;;;;;;;0.40;0.40;;;12.40;99.90;;;;;;4399012;32;20542;-67
2023/05/20 04:19:04;;;;;;;0.45;0.45;;;12.40;99.90;;;;;;4399015;32;20106;-67
2023/05/20 04:21:30;;;;;;;0.37;0.37;;;12.40;99.90;;;;;;4399846;32;20061;-67
2023/05/20 04:23:56;;;;;;;0.43;0.43;;;12.40;99.90;;;;;;4395672;32;20106;-66
2023/05/20 04:26:22;;;;;;;1.05;0.70;;;12.40;99.90;;;;;;4399521;32;20100;-67
2023/05/20 04:28:48;;;;;;;0.60;0.60;;;12.40;99.90;;;;;;4398165;32;20133;-65
2023/05/20 04:31:14;;;;;;;19.48;0.88;;;12.40;99.90;;;;;;4398899;32;20089;-66
2023/05/20 04:33:40;;;;;;;0.20;0.20;;;12.50;99.90;;;;;;4400097;32;20077;-65
2023/05/20 04:36:08;;;;;;;0.43;0.43;;;12.50;99.90;;;;;;4399440;32;20101;-67
2023/05/20 04:38:34;;;;;;;9.75;1.37;;;12.50;99.90;;;;;;4385353;32;20066;-67
2023/05/20 04:41:01;;;;;;;2.30;1.15;;;12.40;99.90;;;;;;4397798;32;20081;-67
2023/05/20 04:43:30;;;;;;;3.30;0.52;;;12.50;99.90;;;;;;4398275;32;20102;-67
2023/05/20 04:45:56;;;;;;;0.50;0.50;;;12.50;99.90;;;;;;4397499;32;20062;-67
2023/05/20 04:48:22;;;;;;;0.35;0.35;;;12.50;99.90;;;;;;4398334;32;20115;-66
2023/05/20 04:50:48;;;;;;;0.98;0.57;;;12.50;99.90;;;;;;4399130;32;20717;-67
2023/05/20 04:53:16;;;;;;;1.85;0.50;;;12.50;99.90;;;;;;4383533;32;20897;-67
2023/05/20 04:55:42;;;;;;;0.47;0.47;;;12.40;99.90;;;;;;4398717;32;20082;-67
2023/05/20 04:58:13;;;;;;;0.77;0.70;;;12.40;99.90;;;;;;4397956;32;20137;-68
2023/05/20 05:00:41;;;;;;;3.00;0.90;;;12.50;99.90;;;;;;4397875;32;20086;-65
2023/05/20 05:03:07;;;;;;;0.40;0.40;;;12.50;99.90;;;;;;4397300;32;20098;-66
2023/05/20 05:05:35;;;;;;;0.30;0.30;;;12.40;99.90;;;;;;4399052;32;20103;-66
2023/05/20 05:08:00;;;;;;;0.82;0.68;;;12.50;99.90;;;;;;4398605;32;20090;-67
2023/05/20 05:10:26;;;;;;;0.30;0.30;;;12.50;99.90;;;;;;4395342;32;20471;-66
2023/05/20 05:12:51;;;;;;;0.40;0.40;;;12.50;99.90;;;;;;4397553;32;20196;-66
2023/05/20 05:15:17;;;;;;;0.45;0.45;;;12.50;99.90;;;;;;4401455;32;20502;-69
2023/05/20 05:17:42;;;;;;;1.75;0.50;;;12.50;99.90;;;;;;4402220;32;20069;-68
2023/05/20 05:20:08;;;;;;;0.62;0.62;;;12.50;99.90;;;;;;4398213;32;20235;-69
2023/05/20 05:22:35;;;;;;;2.08;0.68;;;12.60;99.90;;;;;;4398381;32;20086;-69
2023/05/20 05:25:02;;;;;;;0.40;0.40;;;12.60;99.90;;;;;;4397494;32;20153;-67
2023/05/20 05:27:27;;;;;;;0.65;0.65;;;12.60;99.90;;;;;;4385475;32;20702;-66
2023/05/20 05:29:53;;;;;;;1.00;0.70;;;12.70;99.90;;;;;;4401231;32;20212;-66
2023/05/20 05:32:18;;;;;;;0.40;0.40;;;12.60;99.90;;;;;;4398395;32;20082;-66
2023/05/20 05:34:44;;;;;;;0.50;0.50;;;12.60;99.90;;;;;;4396771;32;20094;-67
2023/05/20 05:37:10;;;;;;;1.08;0.98;;;12.60;99.90;;;;;;4398239;32;20121;-66
2023/05/20 05:39:36;;;;;;;0.40;0.40;;;12.60;99.90;;;;;;4396697;32;20070;-67
2023/05/20 05:42:02;;;;;;;1.55;0.95;;;12.60;99.90;;;;;;4400289;32;20070;-67
2023/05/20 05:44:28;;;;;;;0.50;0.50;;;12.70;99.90;;;;;;4397289;32;20125;-66
2023/05/20 05:46:53;;;;;;;0.65;0.55;;;12.70;99.90;;;;;;4399411;32;20131;-65
2023/05/20 05:49:19;;;;;;;0.57;0.57;;;12.70;99.90;;;;;;4398259;32;20093;-67
2023/05/20 05:51:44;;;;;;;0.82;0.82;;;12.80;99.90;;;;;;4399300;32;20075;-67
2023/05/20 05:54:10;;;;;;;4.97;1.02;;;12.80;99.90;;;;;;4396996;32;20202;-65
2023/05/20 05:56:35;;;;;;;0.40;0.40;;;12.70;99.90;;;;;;4399980;32;20775;-66
2023/05/20 05:59:01;;;;;;;2.03;0.60;;;12.70;99.90;;;;;;4397070;32;20076;-67
2023/05/20 06:01:27;;;;;;;3.60;0.40;;;12.70;99.90;;;;;;4397200;32;20521;-67
2023/05/20 06:03:52;;;;;;;0.30;0.30;;;12.80;99.90;;;;;;4395808;32;20077;-66
2023/05/20 06:06:18;;;;;;;0.98;0.93;;;12.80;99.90;;;;;;4394296;32;20537;-65
2023/05/20 06:08:43;;;;;;;0.60;0.60;;;12.80;99.90;;;;;;4397313;32;20609;-66
2023/05/20 06:11:09;;;;;;;0.50;0.50;;;12.90;99.90;;;;;;4395095;32;20426;-66
2023/05/20 06:13:35;;;;;;;0.98;0.75;;;12.90;99.90;;;;;;4395851;32;20145;-66
2023/05/20 06:16:00;;;;;;;0.73;0.73;;;12.90;99.90;;;;;;4383955;32;20208;-68
2023/05/20 06:18:26;;;;;;;0.43;0.43;;;12.90;99.90;;;;;;4396284;32;20547;-67
2023/05/20 06:20:56;;;;;;;0.50;0.50;;;12.80;99.90;;;;;;4394797;32;20070;-68
2023/05/20 06:23:21;;;;;;;0.52;0.52;;;12.90;99.90;;;;;;4395479;32;20528;-66
2023/05/20 06:25:47;;;;;;;1.87;1.35;;;12.90;99.90;;;;;;4397789;32;20069;-66
2023/05/20 06:28:13;;;;;;;0.65;0.57;;;12.90;99.90;;;;;;4395291;32;20081;-67
2023/05/20 06:30:39;;;;;;;0.50;0.50;;;12.90;99.90;;;;;;4397940;32;20081;-66
2023/05/20 06:33:05;;;;;;;3.20;1.20;;;13.00;99.90;;;;;;4397090;32;20086;-67
2023/05/20 06:35:30;;;;;;;2.15;1.48;;;13.10;99.90;;;;;;4396379;32;20057;-66
2023/05/20 06:37:56;;;;;;;0.50;0.50;;;13.10;99.90;;;;;;4395002;32;20448;-67
2023/05/20 06:40:22;;;;;;;0.60;0.60;;;13.10;99.90;;;;;;4396783;32;20082;-68
2023/05/20 06:42:47;;;;;;;0.70;0.70;;;13.10;99.90;;;;;;4396315;32;20066;-66
2023/05/20 06:45:13;;;;;;;1.05;0.65;;;13.10;99.90;;;;;;4397067;32;20079;-67
2023/05/20 06:47:38;;;;;;;1.33;0.85;;;13.00;99.90;;;;;;4396248;32;20138;-67
2023/05/20 06:50:04;;;;;;;0.80;0.80;;;13.10;99.90;;;;;;4395190;32;21310;-67
2023/05/20 06:52:30;;;;;;;3.92;1.52;;;13.10;99.90;;;;;;4379566;32;20106;-67
2023/05/20 06:54:55;;;;;;;0.45;0.45;;;13.20;99.90;;;;;;4394313;32;20078;-67
2023/05/20 06:57:21;;;;;;;0.40;0.40;;;13.20;99.90;;;;;;4394105;32;20098;-67
2023/05/20 06:59:46;;;;;;;0.73;0.73;;;13.20;99.90;;;;;;4394967;32;20594;-67
2023/05/20 07:02:12;;;;;;;0.47;0.47;;;13.30;99.90;;;;;;4397183;32;20101;-67
2023/05/20 07:04:37;;;;;;;1.90;1.45;;;13.30;99.90;;;;;;4396253;32;20412;-67
2023/05/20 07:07:03;;;;;;;0.70;0.60;;;13.40;99.90;;;;;;4395039;32;20077;-67
2023/05/20 07:09:28;;;;;;;0.40;0.40;;;13.30;99.90;;;;;;4394311;32;20070;-67
2023/05/20 07:11:54;;;;;;;0.40;0.40;;;13.30;99.90;;;;;;4393653;32;20481;-67
2023/05/20 07:14:19;;;;;;;0.73;0.73;;;13.50;99.90;;;;;;4394975;32;20074;-67
2023/05/20 07:16:45;;;;;;;1.08;0.62;;;13.40;99.90;;;;;;4397930;32;20562;-67
2023/05/20 07:19:10;;;;;;;1.48;1.15;;;13.40;99.90;;;;;;4398506;32;20082;-67
2023/05/20 07:21:36;;;;;;;0.60;0.60;;;13.40;99.90;;;;;;4400053;32;20213;-65
2023/05/20 07:24:01;;;;;;;0.62;0.45;;;13.50;99.90;;;;;;4395978;32;20415;-68
2023/05/20 07:26:27;;;;;;;0.68;0.50;;;13.60;99.90;;;;;;4398538;32;20082;-67
2023/05/20 07:28:52;;;;;;;0.80;0.70;;;13.60;99.90;;;;;;4396545;32;20086;-67
2023/05/20 07:31:18;;;;;;;3.75;1.02;;;13.70;99.90;;;;;;4397268;32;20094;-66
2023/05/20 07:33:43;;;;;;;0.40;0.40;;;13.70;99.90;;;;;;4400394;32;20089;-67
2023/05/20 07:36:09;;;;;;;0.50;0.50;;;13.70;99.90;;;;;;4397268;32;20565;-68
2023/05/20 07:38:35;;;;;;;0.37;0.37;;;13.80;99.90;;;;;;4398814;32;20546;-68
2023/05/20 07:41:00;;;;;;;1.87;0.80;;;13.80;99.90;;;;;;4397337;32;20125;-67
2023/05/20 07:43:26;;;;;;;0.50;0.50;;;13.80;99.90;;;;;;4398484;32;20605;-67
2023/05/20 07:45:51;;;;;;;0.82;0.68;;;13.90;99.90;;;;;;4396564;32;20086;-67
2023/05/20 07:48:17;;;;;;;1.17;0.57;;;14.00;99.90;;;;;;4396523;32;20118;-65
2023/05/20 07:50:43;;;;;;;1.30;0.85;;;14.00;99.90;;;;;;4385047;32;20439;-67
2023/05/20 07:53:08;;;;;;;0.50;0.50;;;14.00;99.90;;;;;;4396469;32;20081;-67
2023/05/20 07:55:35;;;;;;;0.80;0.50;;;14.10;99.90;;;;;;4396913;32;20580;-66
2023/05/20 07:58:01;;;;;;;0.40;0.40;;;14.10;99.90;;;;;;4396946;32;20078;-66
2023/05/20 08:00:27;;;;;;;3.03;0.98;;;14.30;99.90;;;;;;4373346;32;20105;-66
2023/05/20 08:02:52;;;;;;;0.60;0.60;;;14.40;99.90;;;;;;4399732;32;20524;-67
2023/05/20 08:05:18;;;;;;;0.37;0.37;;;14.50;99.90;;;;;;4394513;32;20084;-67
2023/05/20 08:07:44;;;;;;;0.30;0.30;;;14.60;99.90;;;;;;4396347;32;20144;-66
2023/05/20 08:10:10;;;;;;;0.60;0.60;;;14.60;99.90;;;;;;4399621;32;20086;-66
2023/05/20 08:12:36;;;;;;;0.47;0.43;;;14.50;99.90;;;;;;4395838;32;20179;-67
2023/05/20 08:15:01;;;;;;;0.40;0.40;;;14.70;99.90;;;;;;4397735;32;20560;-66
2023/05/20 08:17:27;;;;;;;0.40;0.40;;;14.80;99.90;;;;;;4394653;32;20101;-67
2023/05/20 08:19:52;;;;;;;0.43;0.43;;;14.90;99.90;;;;;;4396777;32;20616;-67
2023/05/20 08:22:18;;;;;;;0.37;0.37;;;14.90;99.90;;;;;;4400873;32;20102;-66
2023/05/20 08:24:43;;;;;;;1.02;0.90;;;15.00;99.90;;;;;;4397098;32;20078;-67
2023/05/20 08:27:09;;;;;;;0.47;0.47;;;15.10;99.90;;;;;;4398768;32;20420;-67
2023/05/20 08:29:35;;;;;;;4.35;0.55;;;15.00;99.90;;;;;;4396928;32;20063;-67
2023/05/20 08:32:00;;;;;;;3.10;0.75;;;15.10;99.90;;;;;;4397803;32;20546;-67
2023/05/20 08:34:26;;;;;;;1.30;1.05;;;15.20;99.90;;;;;;4385326;32;20082;-66
2023/05/20 08:36:52;;;;;;;0.47;0.47;;;15.20;99.90;;;;;;4398445;32;20121;-67
2023/05/20 08:39:17;;;;;;;0.85;0.82;;;15.30;99.90;;;;;;4399543;32;20708;-67
2023/05/20 08:41:46;;;;;;;1.02;0.80;;;15.30;99.90;;;;;;4385476;32;20066;-66
2023/05/20 08:44:11;;;;;;;0.35;0.35;;;15.40;99.90;;;;;;4384513;32;20494;-67
2023/05/20 08:46:37;;;;;;;0.50;0.50;;;15.40;99.90;;;;;;4396156;32;20090;-66
2023/05/20 08:49:03;;;;;;;7.70;1.08;;;15.50;99.90;;;;;;4384100;32;20542;-65
2023/05/20 08:51:32;;;;;;;0.70;0.70;;;15.50;99.90;;;;;;4383788;32;20054;-66
2023/05/20 08:53:58;;;;;;;0.40;0.40;;;15.50;99.90;;;;;;4397148;32;20204;-66
2023/05/20 08:56:26;;;;;;;1.87;0.90;;;15.50;99.90;;;;;;4397988;32;20144;-67
2023/05/20 08:58:52;;;;;;;1.42;0.82;;;15.40;99.90;;;;;;4397822;32;20074;-70
2023/05/20 09:01:18;;;;;;;0.35;0.35;;;15.40;99.90;;;;;;4398074;32;20411;-67
2023/05/20 09:03:43;;;;;;;0.95;0.73;;;15.30;99.90;;;;;;4383976;32;20097;-66
2023/05/20 09:06:09;;;;;;;0.40;0.40;;;15.30;99.90;;;;;;4395657;32;20411;-67
2023/05/20 09:08:35;;;;;;;0.40;0.40;;;15.30;99.90;;;;;;4382598;32;20133;-66
2023/05/20 09:11:01;;;;;;;0.50;0.50;;;15.30;99.90;;;;;;4396006;32;20066;-68
2023/05/20 09:13:29;;;;;;;1.45;0.75;;;15.30;99.90;;;;;;4396267;32;20061;-67
2023/05/20 09:15:55;;;;;;;0.50;0.50;;;15.30;99.90;;;;;;4383950;32;20652;-67
2023/05/20 09:18:20;;;;;;;2.67;0.93;;;15.30;99.90;;;;;;4395851;32;20089;-67
2023/05/20 09:20:49;;;;;;;0.57;0.50;;;15.20;99.90;;;;;;4398517;32;20057;-66
2023/05/20 09:23:18;;;;;;;1.23;0.65;;;15.20;99.90;;;;;;4397873;32;20094;-65
2023/05/20 09:25:43;;;;;;;15.30;2.42;;;15.20;99.90;;;;;;4384516;32;20078;-67
2023/05/20 09:28:10;;;;;;;3.30;1.37;;;15.30;99.90;;;;;;4397988;32;20067;-67
2023/05/20 09:30:36;;;;;;;0.45;0.45;;;15.30;99.90;;;;;;4397798;32;20058;-67
2023/05/20 09:33:03;;;;;;;0.82;0.82;;;15.30;99.90;;;;;;4397212;32;20081;-68
2023/05/20 09:35:29;;;;;;;0.68;0.68;;;15.40;99.90;;;;;;4384309;32;20074;-66
2023/05/20 09:37:57;;;;;;;0.60;0.60;;;15.40;99.90;;;;;;4395302;32;20189;-68
2023/05/20 09:40:25;;;;;;;0.40;0.40;;;15.30;99.90;;;;;;4382773;32;20081;-66
2023/05/20 09:42:56;;;;;;;0.77;0.77;;;15.40;99.90;;;;;;4396826;32;20201;-66
2023/05/20 09:45:21;;;;;;;;;;;15.40;99.90;;;;;;4397016;32;20600;-68
2023/05/20 09:47:49;;;;;;;1.23;0.45;;;15.50;99.90;;;;;;4397925;32;19956;-69
2023/05/20 09:50:16;;;;;;;0.77;0.60;;;15.60;99.90;;;;;;4384300;32;20098;-65
2023/05/20 09:52:43;;;;;;;0.50;0.50;;;15.70;99.90;;;;;;4395503;32;20095;-66
2023/05/20 09:55:09;;;;;;;0.40;0.40;;;15.70;99.90;;;;;;4380680;32;20074;-66
2023/05/20 09:57:36;;;;;;;0.50;0.50;;;15.80;99.90;;;;;;4398391;32;20077;-67
2023/05/20 10:00:04;;;;;;;0.85;0.85;;;15.80;99.90;;;;;;4398140;32;20062;-67
2023/05/20 10:02:31;;;;;;;1.55;1.08;;;15.80;99.90;;;;;;4399569;32;20058;-67
2023/05/20 10:05:00;;;;;;;0.47;0.47;;;15.80;99.90;;;;;;4381871;32;20086;-67
2023/05/20 10:08:06;;;;;;;0.32;0.32;;;15.80;99.90;;;;;;4395001;32;20134;-67
2023/05/20 10:11:09;;;;;;;0.57;0.57;;;15.90;99.90;;;;;;4379656;32;20145;-67
2023/05/20 10:14:08;;;;;;;0.73;0.73;;;15.90;99.90;;;;;;4386666;32;20078;-66
2023/05/20 10:17:07;;;;;;;2.53;1.17;;;15.90;99.90;;;;;;4376143;32;20541;-67
2023/05/20 10:19:34;;;;;;;0.60;0.60;;;16.00;99.90;;;;;;4393808;32;20534;-66
2023/05/20 10:22:02;;;;;;;0.93;0.65;;;16.00;99.90;;;;;;4396255;32;20141;-67
2023/05/20 10:24:39;;;;;;;0.80;0.80;;;16.00;99.90;;;;;;4381529;32;20562;-67
2023/05/20 10:27:08;;;;;;;1.37;0.68;;;16.20;99.90;;;;;;4380334;32;20215;-67
2023/05/20 10:29:51;;;;;;;0.55;0.55;;;16.30;99.90;;;;;;4398575;32;20825;-67
2023/05/20 10:32:33;;;;;;;0.40;0.40;;;16.30;99.90;;;;;;4397685;32;20578;-67
2023/05/20 10:35:03;;;;;;;2.37;1.00;;;16.30;99.90;;;;;;4396991;32;20086;-67
2023/05/20 10:37:31;;;;;;;0.68;0.68;;;16.50;99.90;;;;;;4375939;32;20446;-67
2023/05/20 10:40:13;;;;;;;0.75;0.75;;;16.60;99.90;;;;;;4395161;32;20521;-66
2023/05/20 10:42:39;;;;;;;2.10;0.80;;;16.70;99.90;;;;;;4388775;32;20099;-65
2023/05/20 10:45:06;;;;;;;0.62;0.62;;;17.00;99.90;;;;;;4380738;32;20083;-66
2023/05/20 10:47:32;;;;;;;0.32;0.32;;;17.20;99.90;;;;;;4370381;32;20062;-67
2023/05/20 10:49:58;;;;;;;0.73;0.60;;;17.30;99.90;;;;;;4394145;32;20094;-67
2023/05/20 10:52:24;;;;;;;0.80;0.80;;;17.20;99.90;;;;;;4396831;32;20105;-67
2023/05/20 10:54:55;;;;;;;1.00;0.52;;;17.20;99.90;;;;;;4383117;32;20066;-67
2023/05/20 10:57:21;;;;;;;7.57;0.50;;;17.20;99.90;;;;;;4397749;32;20546;-68
2023/05/20 10:59:47;;;;;;;0.68;0.68;;;17.20;99.90;;;;;;4396476;32;20065;-67
2023/05/20 11:02:15;;;;;;;0.65;0.50;;;17.40;99.90;;;;;;4398957;32;20102;-67
2023/05/20 11:04:43;;;;;;;0.52;0.52;;;17.40;99.90;;;;;;4387911;32;20066;-68
2023/05/20 11:07:08;;;;;;;0.73;0.68;;;17.50;99.90;;;;;;4395377;32;20600;-68
2023/05/20 11:09:34;;;;;;;2.67;1.08;;;17.40;99.90;;;;;;4396011;32;20101;-66
2023/05/20 11:11:59;;;;;;;0.37;0.37;;;17.40;99.90;;;;;;4380370;32;20490;-67
2023/05/20 11:14:27;;;;;;;0.50;0.50;;;17.40;99.90;;;;;;4396646;32;20066;-67
2023/05/20 11:16:58;;;;;;;2.35;0.60;;;17.40;99.90;;;;;;4395760;32;20153;-67
2023/05/20 11:19:25;;;;;;;1.33;0.82;;;17.50;99.90;;;;;;4373937;32;20657;-67
2023/05/20 11:21:51;;;;;;;1.37;0.90;;;17.60;99.90;;;;;;4398492;32;20078;-69
2023/05/20 11:24:26;;;;;;;3.87;0.93;;;17.60;99.90;;;;;;4385206;32;20522;-68
2023/05/20 11:26:52;;;;;;;0.85;0.60;;;17.90;99.90;;;;;;4397361;32;20109;-68
2023/05/20 11:29:20;;;;;;;0.52;0.52;;;18.10;99.90;;;;;;4384604;32;20133;-68
2023/05/20 11:31:48;;;;;;;0.30;0.30;;;18.30;99.90;;;;;;4385104;32;20078;-69
2023/05/20 11:34:14;;;;;;;1.10;0.60;;;18.40;99.90;;;;;;4383969;32;20093;-67
2023/05/20 11:36:41;;;;;;;1.37;0.62;;;18.60;99.90;;;;;;4397102;32;20098;-67
2023/05/20 11:39:09;;;;;;;1.17;1.05;;;18.50;99.90;;;;;;4397624;32;20431;-67
2023/05/20 11:41:35;;;;;;;0.65;0.52;;;18.40;99.90;;;;;;4373905;32;20109;-67
2023/05/20 11:44:00;;;;;;;0.65;0.62;;;18.50;99.90;;;;;;4398924;32;20073;-67
2023/05/20 11:46:27;;;;;;;0.47;0.47;;;18.60;99.90;;;;;;4392611;32;104625;-68
2023/05/20 11:48:53;;;;;;;1.42;0.65;;;18.60;99.90;;;;;;4381973;32;20070;-68
2023/05/20 11:51:27;;;;;;;1.87;0.77;;;18.60;99.90;;;;;;4394285;32;21250;-66
2023/05/20 11:53:58;;;;;;;1.50;0.55;;;18.90;99.90;;;;;;4391749;32;20117;-67
2023/05/20 11:56:23;;;;;;;0.73;0.73;;;19.40;99.90;;;;;;4396886;32;20082;-69
2023/05/20 11:58:49;;;;;;;0.35;0.35;;;20.20;99.90;;;;;;4394789;32;20057;-68
2023/05/20 12:01:14;;;;;;;0.75;0.50;;;20.80;99.90;;;;;;4396345;32;20092;-68
2023/05/20 12:03:40;;;;;;;0.30;0.30;;;20.90;99.90;;;;;;4394243;32;20061;-67
2023/05/20 12:06:06;;;;;;;0.20;0.20;;;20.70;99.90;;;;;;4394132;32;20157;-66
2023/05/20 12:08:31;;;;;;;0.60;0.55;;;20.40;99.90;;;;;;4395834;32;20462;-68
2023/05/20 12:10:57;;;;;;;0.90;0.68;;;20.30;99.90;;;;;;4393971;32;20086;-67
2023/05/20 12:13:22;;;;;;;0.30;0.30;;;20.50;99.90;;;;;;4395069;32;20525;-66
2023/05/20 12:15:48;;;;;;;0.52;0.30;;;21.10;99.90;;;;;;4395372;32;20070;-68
2023/05/20 12:18:13;;;;;;;0.30;0.30;;;21.80;99.90;;;;;;4397617;32;20098;-67
2023/05/20 12:20:39;;;;;;;0.50;0.50;;;22.40;99.90;;;;;;4398216;32;20078;-68
2023/05/20 12:23:04;;;;;;;0.40;0.40;;;23.00;99.90;;;;;;4397479;32;20109;-67
2023/05/20 12:25:30;;;;;;;0.80;0.80;;;23.20;99.90;;;;;;4395499;32;20061;-66
2023/05/20 12:27:56;;;;;;;0.40;0.40;;;23.10;99.90;;;;;;4397260;32;20094;-66
2023/05/20 12:30:22;;;;;;;2.25;0.57;;;23.00;99.90;;;;;;4372396;32;20082;-67
2023/05/20 12:32:50;;;;;;;0.30;0.30;;;23.00;99.90;;;;;;4371009;32;20110;-67
2023/05/20 12:35:16;;;;;;;0.25;0.25;;;22.70;99.90;;;;;;4396333;32;20086;-65
2023/05/20 12:37:42;;;;;;;1.10;0.93;;;22.60;99.90;;;;;;4383273;32;20141;-67
2023/05/20 12:40:10;;;;;;;0.40;0.40;;;22.60;99.90;;;;;;4396248;32;20878;-67
2023/05/20 12:42:39;;;;;;;1.92;0.75;;;23.20;99.90;;;;;;4383152;32;20439;-66
2023/05/20 12:45:06;;;;;;;0.73;0.50;;;23.60;99.90;;;;;;4379125;32;20102;-66